createdAt,value
2018-11-13T00:00:36.859Z,11.10
2018-11-13T00:05:59.423Z,13.70
2018-11-13T00:16:48.987Z,11.63
2018-11-13T01:53:58.001Z,12.40
2018-11-13T01:56:29.984Z,12.03
2018-11-13T01:59:03.969Z,11.13
2018-11-13T02:01:33.367Z,10.77
2018-11-13T02:04:03.696Z,12.00
2018-11-13T02:06:35.793Z,11.70
2018-11-13T02:09:15.238Z,12.03
2018-11-13T02:11:57.658Z,11.90
2018-11-13T02:14:36.909Z,12.10
2018-11-13T02:17:10.483Z,11.77
2018-11-13T02:19:41.819Z,12.30
2018-11-13T02:22:18.229Z,10.87
2018-11-13T02:24:55.178Z,11.03
2018-11-13T02:27:30.134Z,10.73
2018-11-13T02:30:03.009Z,12.57
2018-11-13T02:32:37.370Z,10.93
2018-11-13T02:35:10.086Z,11.07
2018-11-13T02:37:45.022Z,11.47
2018-11-13T02:40:15.479Z,11.53
2018-11-13T02:42:52.051Z,10.70
2018-11-13T02:45:24.617Z,11.87
2018-11-13T02:47:55.211Z,11.07
2018-11-13T02:50:28.795Z,10.90
2018-11-13T02:53:00.918Z,11.00
2018-11-13T02:55:32.902Z,11.47
2018-11-13T02:58:03.850Z,10.93
2018-11-13T03:00:34.338Z,13.10
2018-11-13T03:03:06.105Z,12.07
2018-11-13T03:05:43.866Z,11.67
2018-11-13T03:08:18.209Z,11.13
2018-11-13T03:10:52.182Z,11.27
2018-11-13T03:13:24.723Z,11.73
2018-11-13T03:15:55.335Z,11.40
2018-11-13T03:18:26.376Z,12.03
2018-11-13T03:21:05.456Z,11.23
2018-11-13T03:23:45.494Z,10.67
2018-11-13T03:26:19.532Z,11.00
2018-11-13T03:28:51.191Z,12.33
2018-11-13T03:31:23.711Z,11.60
2018-11-13T03:33:53.843Z,12.43
2018-11-13T03:36:30.502Z,12.40
2018-11-13T03:39:06.328Z,12.80
2018-11-13T03:41:41.876Z,12.57
2018-11-13T03:44:17.530Z,12.67
2018-11-13T03:46:50.102Z,12.20
2018-11-13T03:50:05.574Z,12.27
2018-11-13T03:53:00.418Z,13.80
2018-11-13T03:58:49.166Z,12.77
2018-11-13T04:01:31.480Z,12.67
2018-11-13T04:04:26.604Z,13.83
2018-11-13T04:09:59.109Z,13.83
2018-11-13T04:12:37.529Z,13.87
2018-11-13T04:15:13.121Z,13.53
2018-11-13T04:24:09.421Z,13.63
2018-11-13T04:26:49.896Z,15.97
2018-11-13T04:29:22.780Z,15.60
2018-11-13T04:37:05.064Z,16.13
2018-11-13T04:39:44.873Z,16.40
2018-11-13T04:45:55.775Z,16.87
2018-11-13T04:49:00.024Z,16.63
2018-11-13T04:54:32.840Z,17.73
2018-11-13T05:06:00.905Z,17.67
2018-11-13T05:08:51.664Z,16.47
2018-11-13T05:11:29.561Z,15.90
2018-11-13T05:14:18.657Z,19.60
2018-11-13T05:17:18.783Z,19.77
2018-11-13T05:19:59.285Z,20.27
2018-11-13T05:25:47.527Z,19.87
2018-11-13T05:28:27.579Z,19.13
2018-11-13T05:37:08.818Z,20.00
2018-11-13T05:39:52.506Z,21.00
2018-11-13T05:42:30.132Z,20.83
2018-11-13T05:48:47.666Z,22.60
2018-11-13T05:51:35.872Z,21.57
2018-11-13T05:57:16.653Z,26.87
2018-11-13T06:05:56.857Z,22.17
2018-11-13T06:08:48.107Z,21.60
2018-11-13T06:11:23.490Z,22.27
2018-11-13T06:14:00.502Z,24.23
2018-11-13T06:17:01.107Z,27.87
2018-11-13T06:19:55.272Z,26.30
2018-11-13T06:22:48.591Z,25.73
2018-11-13T06:25:30.951Z,25.17
2018-11-13T06:28:18.337Z,24.00
2018-11-13T06:31:05.333Z,23.93
2018-11-13T06:33:46.396Z,25.87
2018-11-13T06:36:33.498Z,25.63
2018-11-13T06:39:30.975Z,24.60
2018-11-13T06:42:04.119Z,27.07
2018-11-13T06:44:42.734Z,28.00
2018-11-13T06:47:26.155Z,30.10
2018-11-13T06:53:29.104Z,27.03
2018-11-13T06:56:09.813Z,32.23
2018-11-13T06:58:53.334Z,28.90
2018-11-13T07:01:43.053Z,28.50
2018-11-13T07:07:05.973Z,36.27
2018-11-13T07:10:06.220Z,33.53
2018-11-13T07:12:43.002Z,37.60
2018-11-13T07:15:21.078Z,41.07
2018-11-13T07:21:03.364Z,33.93
2018-11-13T07:23:50.822Z,33.90
2018-11-13T07:26:36.654Z,31.43
2018-11-13T07:29:16.599Z,35.40
2018-11-13T07:32:17.723Z,32.70
2018-11-13T07:35:11.654Z,35.07
2018-11-13T07:37:56.416Z,31.00
2018-11-13T07:43:51.930Z,35.10
2018-11-13T07:52:55.961Z,33.67
2018-11-13T07:55:46.676Z,37.97
2018-11-13T08:02:57.587Z,35.80
2018-11-13T08:06:25.877Z,37.30
2018-11-13T08:12:28.834Z,44.93
2018-11-13T08:21:56.469Z,44.13
2018-11-13T08:27:33.856Z,41.63
2018-11-13T08:34:03.867Z,39.87
2018-11-13T08:40:06.704Z,35.23
2018-11-13T08:42:47.035Z,33.10
2018-11-13T08:45:28.311Z,40.80
2018-11-13T08:48:21.127Z,32.63
2018-11-13T08:53:52.112Z,31.83
2018-11-13T08:56:50.366Z,33.50
2018-11-13T08:59:30.204Z,34.23
2018-11-13T09:02:04.913Z,33.93
2018-11-13T09:08:20.042Z,38.77
2018-11-13T09:11:15.639Z,39.07
2018-11-13T09:13:52.182Z,36.20
2018-11-13T09:16:30.678Z,38.17
2018-11-13T09:19:32.712Z,34.43
2018-11-13T09:25:19.387Z,35.60
2018-11-13T09:27:56.668Z,34.03
2018-11-13T09:30:42.483Z,30.80
2018-11-13T09:36:27.778Z,34.47
2018-11-13T09:39:19.147Z,28.37
2018-11-13T09:42:14.009Z,31.20
2018-11-13T09:45:11.705Z,31.90
2018-11-13T09:47:59.165Z,33.07
2018-11-13T09:50:50.174Z,32.57
2018-11-13T09:56:35.742Z,32.67
2018-11-13T09:59:22.879Z,32.27
2018-11-13T10:01:59.058Z,35.07
2018-11-13T10:04:46.674Z,33.77
2018-11-13T10:10:30.896Z,31.60
2018-11-13T10:13:43.109Z,33.43
2018-11-13T10:16:29.763Z,26.90
2018-11-13T10:19:11.673Z,30.17
2018-11-13T10:21:50.551Z,28.80
2018-11-13T10:24:35.753Z,27.67
2018-11-13T10:27:16.307Z,32.93
2018-11-13T10:30:09.233Z,27.53
2018-11-13T10:32:53.890Z,27.97
2018-11-13T10:38:28.987Z,29.53
2018-11-13T10:41:05.032Z,32.50
2018-11-13T10:43:48.225Z,37.67
2018-11-13T10:46:32.172Z,30.47
2018-11-13T10:49:15.087Z,27.93
2018-11-13T10:52:03.879Z,28.93
2018-11-13T10:54:48.350Z,25.40
2018-11-13T10:57:31.256Z,25.57
2018-11-13T11:03:16.898Z,28.70
2018-11-13T11:06:08.324Z,24.23
2018-11-13T11:11:59.473Z,27.20
2018-11-13T11:32:37.828Z,28.53
2018-11-13T11:41:48.747Z,28.93
2018-11-13T11:44:49.441Z,29.27
2018-11-13T11:47:35.194Z,29.97
2018-11-13T11:50:47.690Z,30.53
2018-11-13T11:53:52.927Z,25.30
2018-11-13T11:56:44.692Z,28.77
2018-11-13T11:59:52.032Z,33.47
2018-11-13T12:02:36.269Z,33.40
2018-11-13T12:05:19.937Z,29.23
2018-11-13T12:08:10.926Z,30.57
2018-11-13T12:11:02.519Z,31.40
2018-11-13T12:14:06.995Z,26.97
2018-11-13T12:19:35.537Z,27.23
2018-11-13T12:22:22.561Z,26.43
2018-11-13T12:30:54.533Z,20.93
2018-11-13T12:33:52.376Z,22.90
2018-11-13T12:36:31.421Z,19.17
2018-11-13T12:39:22.291Z,21.47
2018-11-13T12:42:05.287Z,20.30
2018-11-13T12:52:46.558Z,23.80
2018-11-13T13:34:57.224Z,19.20
2018-11-13T13:38:40.080Z,20.03
2018-11-13T14:04:52.248Z,17.60
2018-11-13T14:10:29.701Z,14.73
2018-11-13T14:13:24.736Z,12.93
2018-11-13T14:16:06.331Z,13.50
2018-11-13T14:22:08.635Z,12.60
2018-11-13T14:28:03.944Z,13.30
2018-11-13T14:31:15.910Z,12.60
2018-11-13T14:34:00.436Z,14.50
2018-11-13T14:39:55.000Z,14.67
2018-11-13T14:42:38.368Z,14.17
2018-11-13T14:45:31.972Z,13.47
2018-11-13T14:48:19.536Z,13.03
2018-11-13T14:54:17.198Z,13.50
2018-11-13T14:56:57.830Z,13.37
2018-11-13T14:59:38.027Z,13.27
2018-11-13T15:02:12.089Z,13.83
2018-11-13T15:04:53.758Z,15.53
2018-11-13T15:07:39.376Z,13.13
2018-11-13T15:10:19.601Z,14.13
2018-11-13T15:12:58.291Z,14.13
2018-11-13T15:18:31.039Z,13.47
2018-11-13T15:21:17.743Z,13.50
2018-11-13T15:24:04.836Z,13.97
2018-11-13T15:26:49.299Z,12.50
2018-11-13T15:29:26.786Z,15.73
2018-11-13T15:32:07.464Z,16.17
2018-11-13T15:37:45.367Z,6.37
2018-11-13T15:40:29.786Z,7.80
2018-11-13T15:45:58.825Z,5.50
2018-11-13T15:48:49.555Z,6.67
2018-11-13T15:51:48.438Z,6.73
2018-11-13T15:54:40.176Z,5.23
2018-11-13T15:57:16.445Z,4.00
2018-11-13T15:59:49.651Z,3.97
2018-11-13T16:02:36.847Z,4.90
2018-11-13T16:05:31.238Z,5.03
2018-11-13T16:08:15.831Z,4.13
2018-11-13T16:11:01.428Z,4.27
2018-11-13T16:16:19.433Z,7.87
2018-11-13T16:18:58.823Z,5.63
2018-11-13T16:21:44.660Z,13.27
2018-11-13T16:24:57.029Z,9.00
2018-11-13T16:27:48.310Z,5.17
2018-11-13T16:36:52.321Z,6.97
2018-11-13T16:39:40.787Z,5.67
2018-11-13T16:42:30.602Z,3.87
2018-11-13T16:45:18.424Z,4.73
2018-11-13T16:47:54.657Z,6.53
2018-11-13T16:50:39.280Z,5.17
2018-11-13T16:53:58.282Z,5.43
2018-11-13T16:56:50.401Z,5.10
2018-11-13T16:59:28.187Z,4.30
2018-11-13T17:02:09.901Z,6.27
2018-11-13T17:07:44.649Z,3.87
2018-11-13T17:10:37.999Z,5.13
2018-11-13T17:13:18.714Z,3.60
2018-11-13T17:16:07.573Z,3.87
2018-11-13T17:18:51.603Z,3.43
2018-11-13T17:24:49.408Z,2.57
2018-11-13T17:27:36.706Z,2.17
2018-11-13T17:33:49.581Z,2.20
2018-11-13T17:42:38.196Z,1.70
2018-11-13T17:49:43.355Z,1.30
2018-11-13T17:52:35.928Z,1.73
2018-11-13T18:01:25.516Z,2.50
2018-11-13T18:08:30.130Z,1.50
2018-11-13T18:11:18.959Z,3.23
2018-11-13T18:14:21.632Z,3.30
2018-11-13T18:17:10.734Z,2.93
2018-11-13T18:20:06.033Z,2.90
2018-11-13T18:23:19.981Z,2.93
2018-11-13T18:26:05.861Z,2.40
2018-11-13T18:29:38.993Z,2.23
2018-11-13T18:38:25.278Z,3.20
2018-11-13T18:41:10.800Z,2.10
2018-11-13T18:46:51.043Z,3.47
2018-11-13T18:52:44.062Z,3.17
2018-11-13T18:55:30.063Z,4.10
2018-11-13T18:58:42.546Z,3.13
2018-11-13T19:01:29.618Z,2.67
2018-11-13T19:07:25.459Z,3.53
2018-11-13T19:13:34.344Z,6.80
2018-11-13T19:16:34.809Z,4.40
2018-11-13T19:19:27.210Z,4.73
2018-11-13T19:22:38.457Z,5.60
2018-11-13T19:25:50.045Z,5.17
2018-11-13T19:28:28.532Z,5.43
2018-11-13T19:34:03.137Z,4.83
2018-11-13T19:37:24.351Z,5.93
2018-11-13T19:40:29.794Z,6.27
2018-11-13T19:43:07.842Z,8.73
2018-11-13T19:45:55.237Z,8.90
2018-11-13T19:48:45.377Z,6.73
2018-11-13T19:51:27.477Z,8.87
2018-11-13T19:54:28.223Z,7.33
2018-11-13T19:57:02.097Z,9.00
2018-11-13T19:59:49.338Z,7.07
2018-11-13T20:02:41.476Z,9.03
2018-11-13T20:22:18.060Z,9.73
2018-11-13T20:27:52.803Z,9.20
2018-11-13T20:30:34.523Z,7.93
2018-11-13T20:33:09.811Z,8.27
2018-11-13T20:35:45.462Z,10.40
2018-11-13T20:38:16.916Z,8.23
2018-11-13T20:40:49.033Z,8.17
2018-11-13T20:43:26.097Z,10.57
2018-11-13T20:45:57.435Z,8.37
2018-11-13T20:48:30.583Z,9.00
2018-11-13T20:51:04.662Z,9.27
2018-11-13T20:53:37.493Z,8.13
2018-11-13T20:56:09.860Z,10.50
2018-11-13T20:58:44.628Z,13.43
2018-11-13T21:01:13.989Z,8.70
2018-11-13T21:03:54.317Z,10.37
2018-11-13T21:09:29.593Z,9.83
2018-11-13T21:12:03.994Z,10.80
2018-11-13T21:14:39.140Z,10.13
2018-11-13T21:17:12.592Z,9.97
2018-11-13T21:19:51.662Z,10.40
2018-11-13T21:22:42.507Z,9.33
2018-11-13T21:25:20.397Z,9.43
2018-11-13T21:28:07.997Z,10.40
2018-11-13T21:30:58.643Z,9.87
2018-11-13T21:39:35.689Z,15.17
2018-11-13T21:42:17.550Z,11.77
2018-11-13T21:45:03.407Z,13.77
2018-11-13T21:47:33.705Z,12.13
2018-11-13T21:50:08.819Z,13.63
2018-11-13T21:52:42.995Z,12.53
2018-11-13T21:55:16.533Z,12.20
2018-11-13T21:58:02.720Z,13.73
2018-11-13T22:00:39.577Z,12.63
2018-11-13T22:06:13.522Z,16.23
2018-11-13T22:08:47.984Z,18.40
2018-11-13T22:11:19.006Z,17.93
2018-11-13T22:13:55.080Z,12.37
2018-11-13T22:16:24.698Z,11.03
2018-11-13T22:18:54.523Z,14.37
2018-11-13T22:24:12.032Z,12.10
2018-11-13T22:26:42.138Z,14.60
2018-11-13T22:29:11.212Z,10.60
2018-11-13T22:31:40.152Z,12.20
2018-11-13T22:34:09.173Z,11.77
2018-11-13T22:36:38.131Z,11.97
2018-11-13T22:39:10.275Z,12.73
2018-11-13T22:41:40.493Z,11.77
2018-11-13T22:44:09.883Z,12.10
2018-11-13T22:46:40.843Z,11.60
2018-11-13T22:49:10.267Z,9.70
2018-11-13T22:51:39.520Z,10.07
2018-11-13T22:54:10.410Z,11.63
2018-11-13T22:56:40.934Z,13.33
2018-11-13T22:59:09.936Z,14.80
2018-11-13T23:01:39.364Z,9.70
2018-11-13T23:04:12.252Z,13.70
2018-11-13T23:06:41.281Z,11.70
2018-11-13T23:09:15.974Z,11.70
2018-11-13T23:11:45.039Z,10.80
2018-11-13T23:14:16.499Z,11.40
2018-11-13T23:16:46.441Z,11.80
2018-11-13T23:19:15.474Z,9.30
2018-11-13T23:21:44.861Z,9.73
2018-11-13T23:24:18.819Z,13.20
2018-11-13T23:26:48.801Z,12.97
2018-11-13T23:29:20.945Z,11.83
2018-11-13T23:31:51.455Z,11.87
2018-11-13T23:34:22.756Z,10.97
2018-11-13T23:36:51.965Z,13.80
2018-11-13T23:39:22.997Z,11.83
2018-11-13T23:41:54.451Z,10.57
2018-11-13T23:44:23.419Z,10.57
2018-11-13T23:46:57.878Z,15.83
2018-11-13T23:49:28.484Z,9.20
2018-11-13T23:51:57.481Z,10.20
2018-11-13T23:54:27.869Z,10.53
2018-11-13T23:56:56.903Z,12.63
2018-11-13T23:59:27.246Z,9.20
